sensor_id;sensor_type;location;lat;lon;timestamp;pressure;altitude;pressure_sealevel;temperature;humidity
72465;BME280;60471;52.150;4.508;2023-03-14T16:41:35;100492.03;;;12.45;35.82
72465;BME280;60471;52.150;4.508;2023-03-14T16:43:43;100492.69;;;12.34;35.86
72465;BME280;60471;52.150;4.508;2023-03-14T16:46:14;100492.25;;;12.70;35.60
72465;BME280;60471;52.150;4.508;2023-03-14T16:48:41;100511.31;;;12.90;35.18
72465;BME280;60471;52.150;4.508;2023-03-14T16:51:07;100499.59;;;12.80;35.19
72465;BME280;60471;52.150;4.508;2023-03-14T16:53:34;100538.38;;;12.38;35.83
72465;BME280;60471;52.150;4.508;2023-03-14T16:56:00;100526.91;;;11.77;36.07
72465;BME280;60471;52.150;4.508;2023-03-14T16:58:27;100519.63;;;11.51;35.94
72465;BME280;60471;52.150;4.508;2023-03-14T17:00:56;100534.03;;;10.98;35.58
72465;BME280;60471;52.150;4.508;2023-03-14T17:03:22;100530.28;;;10.86;34.96
72465;BME280;60471;52.150;4.508;2023-03-14T17:05:50;100540.41;;;10.61;36.10
72465;BME280;60471;52.150;4.508;2023-03-14T17:08:17;100543.34;;;10.22;37.28
72465;BME280;60471;52.150;4.508;2023-03-14T17:10:45;100556.19;;;10.10;37.00
72465;BME280;60471;52.150;4.508;2023-03-14T17:13:11;100555.94;;;10.15;36.67
72465;BME280;60471;52.150;4.508;2023-03-14T17:15:38;100549.69;;;10.00;36.60
72465;BME280;60471;52.150;4.508;2023-03-14T17:18:09;100548.03;;;10.15;37.01
72465;BME280;60471;52.150;4.508;2023-03-14T17:20:35;100545.50;;;10.31;37.04
72465;BME280;60471;52.150;4.508;2023-03-14T17:23:01;100551.00;;;10.26;37.50
72465;BME280;60471;52.150;4.508;2023-03-14T17:25:27;100556.41;;;9.52;38.90
72465;BME280;60471;52.150;4.508;2023-03-14T17:27:53;100565.94;;;9.55;39.45
72465;BME280;60471;52.150;4.508;2023-03-14T17:30:19;100562.75;;;9.11;39.61
72465;BME280;60471;52.150;4.508;2023-03-14T17:32:45;100575.91;;;9.11;40.31
72465;BME280;60471;52.150;4.508;2023-03-14T17:35:11;100586.34;;;8.75;39.84
72465;BME280;60471;52.150;4.508;2023-03-14T17:37:37;100587.88;;;8.39;40.31
72465;BME280;60471;52.150;4.508;2023-03-14T17:40:03;100596.84;;;8.34;40.36
72465;BME280;60471;52.150;4.508;2023-03-14T17:42:30;100599.53;;;8.32;40.79
72465;BME280;60471;52.150;4.508;2023-03-14T17:44:56;100612.69;;;8.32;40.71
72465;BME280;60471;52.150;4.508;2023-03-14T17:47:23;100619.13;;;8.25;41.27
72465;BME280;60471;52.150;4.508;2023-03-14T17:49:49;100626.47;;;8.17;42.05
72465;BME280;60471;52.150;4.508;2023-03-14T17:52:15;100629.28;;;8.12;42.34
72465;BME280;60471;52.150;4.508;2023-03-14T17:54:41;100628.69;;;8.06;42.59
72465;BME280;60471;52.150;4.508;2023-03-14T17:57:07;100629.47;;;8.08;43.08
72465;BME280;60471;52.150;4.508;2023-03-14T17:59:33;100624.16;;;8.09;43.40
72465;BME280;60471;52.150;4.508;2023-03-14T18:01:59;100632.09;;;8.08;43.44
72465;BME280;60471;52.150;4.508;2023-03-14T18:04:25;100626.22;;;8.01;44.30
72465;BME280;60471;52.150;4.508;2023-03-14T18:06:51;100627.22;;;7.99;44.67
72465;BME280;60471;52.150;4.508;2023-03-14T18:09:18;100637.78;;;7.97;45.23
72465;BME280;60471;52.150;4.508;2023-03-14T18:11:44;100634.47;;;7.92;45.66
72465;BME280;60471;52.150;4.508;2023-03-14T18:14:10;100637.88;;;7.96;45.84
72465;BME280;60471;52.150;4.508;2023-03-14T18:16:41;100649.72;;;8.06;46.00
72465;BME280;60471;52.150;4.508;2023-03-14T18:19:10;100641.63;;;7.89;46.73
72465;BME280;60471;52.150;4.508;2023-03-14T18:21:36;100647.59;;;7.70;47.67
72465;BME280;60471;52.150;4.508;2023-03-14T18:24:04;100644.88;;;7.73;47.79
72465;BME280;60471;52.150;4.508;2023-03-14T18:26:31;100650.50;;;7.64;48.68
72465;BME280;60471;52.150;4.508;2023-03-14T18:28:57;100649.13;;;7.54;48.42
72465;BME280;60471;52.150;4.508;2023-03-14T18:31:23;100651.63;;;7.57;49.46
72465;BME280;60471;52.150;4.508;2023-03-14T18:33:50;100661.59;;;7.49;49.73
72465;BME280;60471;52.150;4.508;2023-03-14T18:36:20;100663.19;;;7.53;50.08
72465;BME280;60471;52.150;4.508;2023-03-14T18:38:46;100669.56;;;7.46;50.40
72465;BME280;60471;52.150;4.508;2023-03-14T18:41:16;100672.53;;;7.60;50.60
72465;BME280;60471;52.150;4.508;2023-03-14T18:43:44;100682.66;;;7.69;50.54
72465;BME280;60471;52.150;4.508;2023-03-14T18:46:11;100671.44;;;7.66;50.78
72465;BME280;60471;52.150;4.508;2023-03-14T18:48:38;100683.59;;;7.68;50.97
72465;BME280;60471;52.150;4.508;2023-03-14T18:51:10;100675.63;;;7.71;51.12
72465;BME280;60471;52.150;4.508;2023-03-14T18:53:37;100683.78;;;7.64;50.74
72465;BME280;60471;52.150;4.508;2023-03-14T18:56:04;100680.53;;;7.79;50.52
72465;BME280;60471;52.150;4.508;2023-03-14T18:58:30;100690.44;;;7.72;51.35
72465;BME280;60471;52.150;4.508;2023-03-14T19:00:58;100682.38;;;7.77;51.20
72465;BME280;60471;52.150;4.508;2023-03-14T19:03:26;100686.16;;;7.70;51.21
72465;BME280;60471;52.150;4.508;2023-03-14T19:05:53;100681.22;;;7.62;51.12
72465;BME280;60471;52.150;4.508;2023-03-14T19:08:20;100678.34;;;7.68;51.52
72465;BME280;60471;52.150;4.508;2023-03-14T19:10:51;100664.56;;;7.40;52.08
72465;BME280;60471;52.150;4.508;2023-03-14T19:13:20;100670.75;;;7.37;52.71
72465;BME280;60471;52.150;4.508;2023-03-14T19:15:46;100667.78;;;7.46;52.60
72465;BME280;60471;52.150;4.508;2023-03-14T19:18:12;100671.72;;;7.58;52.41
72465;BME280;60471;52.150;4.508;2023-03-14T19:20:39;100663.06;;;7.56;52.79
72465;BME280;60471;52.150;4.508;2023-03-14T19:23:06;100661.72;;;7.68;52.90
72465;BME280;60471;52.150;4.508;2023-03-14T19:25:33;100668.94;;;7.63;52.44
72465;BME280;60471;52.150;4.508;2023-03-14T19:27:59;100679.19;;;7.69;53.42
72465;BME280;60471;52.150;4.508;2023-03-14T19:30:26;100670.81;;;7.81;53.46
72465;BME280;60471;52.150;4.508;2023-03-14T19:32:52;100678.91;;;7.98;52.51
72465;BME280;60471;52.150;4.508;2023-03-14T19:35:18;100680.75;;;7.96;52.55
72465;BME280;60471;52.150;4.508;2023-03-14T19:37:44;100678.41;;;7.67;53.18
72465;BME280;60471;52.150;4.508;2023-03-14T19:40:11;100693.88;;;7.51;53.87
72465;BME280;60471;52.150;4.508;2023-03-14T19:42:37;100680.81;;;7.49;54.43
72465;BME280;60471;52.150;4.508;2023-03-14T19:45:03;100688.69;;;7.49;54.71
72465;BME280;60471;52.150;4.508;2023-03-14T19:47:30;100692.97;;;7.52;55.10
72465;BME280;60471;52.150;4.508;2023-03-14T19:49:56;100696.22;;;7.35;56.03
72465;BME280;60471;52.150;4.508;2023-03-14T19:52:25;100699.59;;;7.39;55.55
72465;BME280;60471;52.150;4.508;2023-03-14T19:54:52;100692.41;;;7.20;56.14
72465;BME280;60471;52.150;4.508;2023-03-14T19:57:19;100703.22;;;7.35;56.16
72465;BME280;60471;52.150;4.508;2023-03-14T19:59:45;100697.84;;;7.38;56.23
72465;BME280;60471;52.150;4.508;2023-03-14T20:02:14;100713.59;;;7.38;56.50
72465;BME280;60471;52.150;4.508;2023-03-14T20:04:41;100730.09;;;6.93;58.24
72465;BME280;60471;52.150;4.508;2023-03-14T20:07:09;100728.09;;;7.24;57.87
72465;BME280;60471;52.150;4.508;2023-03-14T20:09:37;100722.38;;;7.13;58.39
72465;BME280;60471;52.150;4.508;2023-03-14T20:12:06;100734.34;;;6.71;59.48
72465;BME280;60471;52.150;4.508;2023-03-14T20:14:33;100748.50;;;6.91;59.90
72465;BME280;60471;52.150;4.508;2023-03-14T20:17:00;100753.97;;;7.10;59.77
72465;BME280;60471;52.150;4.508;2023-03-14T20:19:26;100756.91;;;7.01;60.98
72465;BME280;60471;52.150;4.508;2023-03-14T20:21:53;100760.25;;;7.31;59.67
72465;BME280;60471;52.150;4.508;2023-03-14T20:24:19;100748.03;;;7.30;56.34
72465;BME280;60471;52.150;4.508;2023-03-14T20:26:45;100741.13;;;7.28;54.21
72465;BME280;60471;52.150;4.508;2023-03-14T20:29:11;100745.44;;;7.04;53.42
72465;BME280;60471;52.150;4.508;2023-03-14T20:31:40;100741.44;;;7.18;53.17
72465;BME280;60471;52.150;4.508;2023-03-14T20:34:07;100734.84;;;7.32;53.20
72465;BME280;60471;52.150;4.508;2023-03-14T20:36:33;100738.72;;;7.45;53.21
72465;BME280;60471;52.150;4.508;2023-03-14T20:39:00;100739.66;;;7.44;53.75
72465;BME280;60471;52.150;4.508;2023-03-14T20:41:26;100737.72;;;7.49;53.91
72465;BME280;60471;52.150;4.508;2023-03-14T20:43:52;100741.06;;;7.29;54.27
72465;BME280;60471;52.150;4.508;2023-03-14T20:46:18;100734.00;;;7.31;54.88
72465;BME280;60471;52.150;4.508;2023-03-14T20:48:44;100741.25;;;7.48;55.00
72465;BME280;60471;52.150;4.508;2023-03-14T20:51:11;100749.41;;;7.40;55.13
72465;BME280;60471;52.150;4.508;2023-03-14T20:53:38;100748.63;;;7.38;55.46
72465;BME280;60471;52.150;4.508;2023-03-14T20:56:04;100751.72;;;7.24;55.95
72465;BME280;60471;52.150;4.508;2023-03-14T20:58:31;100751.16;;;7.16;56.28
72465;BME280;60471;52.150;4.508;2023-03-14T21:00:58;100754.25;;;7.28;55.88
72465;BME280;60471;52.150;4.508;2023-03-14T21:03:26;100761.63;;;7.41;56.41
72465;BME280;60471;52.150;4.508;2023-03-14T21:05:53;100770.16;;;6.98;57.36
72465;BME280;60471;52.150;4.508;2023-03-14T21:08:20;100765.38;;;6.84;59.00
72465;BME280;60471;52.150;4.508;2023-03-14T21:10:49;100768.69;;;7.14;59.02
72465;BME280;60471;52.150;4.508;2023-03-14T21:13:16;100765.94;;;6.92;59.99
72465;BME280;60471;52.150;4.508;2023-03-14T21:15:42;100768.31;;;7.00;60.29
72465;BME280;60471;52.150;4.508;2023-03-14T21:18:08;100770.31;;;7.18;60.66
72465;BME280;60471;52.150;4.508;2023-03-14T21:20:34;100771.66;;;7.30;60.73
72465;BME280;60471;52.150;4.508;2023-03-14T21:23:02;100778.91;;;7.47;59.83
72465;BME280;60471;52.150;4.508;2023-03-14T21:25:29;100786.69;;;7.50;59.59
72465;BME280;60471;52.150;4.508;2023-03-14T21:27:56;100841.50;;;6.81;62.53
72465;BME280;60471;52.150;4.508;2023-03-14T21:30:22;100839.72;;;5.98;68.63
72465;BME280;60471;52.150;4.508;2023-03-14T21:32:48;100867.41;;;5.41;71.76
72465;BME280;60471;52.150;4.508;2023-03-14T21:35:15;100885.94;;;4.61;77.71
72465;BME280;60471;52.150;4.508;2023-03-14T21:37:41;100892.31;;;4.49;78.98
72465;BME280;60471;52.150;4.508;2023-03-14T21:40:07;100893.69;;;4.25;79.46
72465;BME280;60471;52.150;4.508;2023-03-14T21:42:34;100890.88;;;3.93;80.26
72465;BME280;60471;52.150;4.508;2023-03-14T21:45:00;100871.25;;;3.73;81.03
72465;BME280;60471;52.150;4.508;2023-03-14T21:47:26;100869.81;;;3.57;81.46
72465;BME280;60471;52.150;4.508;2023-03-14T21:49:52;100873.91;;;3.72;81.93
72465;BME280;60471;52.150;4.508;2023-03-14T21:52:19;100875.91;;;4.02;81.40
72465;BME280;60471;52.150;4.508;2023-03-14T21:54:48;100855.38;;;3.84;81.04
72465;BME280;60471;52.150;4.508;2023-03-14T21:57:14;100850.84;;;3.94;81.03
72465;BME280;60471;52.150;4.508;2023-03-14T21:59:42;100847.75;;;3.73;81.09
72465;BME280;60471;52.150;4.508;2023-03-14T22:02:11;100858.50;;;4.03;81.88
72465;BME280;60471;52.150;4.508;2023-03-14T22:04:41;100863.41;;;3.73;82.22
72465;BME280;60471;52.150;4.508;2023-03-14T22:07:09;100860.84;;;4.15;81.42
72465;BME280;60471;52.150;4.508;2023-03-14T22:09:37;100863.53;;;4.11;81.47
72465;BME280;60471;52.150;4.508;2023-03-14T22:12:05;100867.41;;;4.33;80.65
72465;BME280;60471;52.150;4.508;2023-03-14T22:14:31;100860.28;;;4.40;80.87
72465;BME280;60471;52.150;4.508;2023-03-14T22:16:58;100863.03;;;4.33;80.22
72465;BME280;60471;52.150;4.508;2023-03-14T22:19:28;100872.78;;;4.27;81.44
72465;BME280;60471;52.150;4.508;2023-03-14T22:21:56;100866.97;;;4.53;81.12
72465;BME280;60471;52.150;4.508;2023-03-14T22:24:23;100872.09;;;4.57;81.31
72465;BME280;60471;52.150;4.508;2023-03-14T22:26:52;100874.38;;;4.71;80.94
72465;BME280;60471;52.150;4.508;2023-03-14T22:29:20;100906.81;;;5.01;80.58
72465;BME280;60471;52.150;4.508;2023-03-14T22:31:47;100917.81;;;4.78;79.51
72465;BME280;60471;52.150;4.508;2023-03-14T22:34:13;100911.41;;;4.51;78.54
72465;BME280;60471;52.150;4.508;2023-03-14T22:36:39;100916.69;;;4.50;78.41
72465;BME280;60471;52.150;4.508;2023-03-14T22:39:06;100907.84;;;4.15;78.88
72465;BME280;60471;52.150;4.508;2023-03-14T22:41:32;100919.84;;;4.22;79.68
72465;BME280;60471;52.150;4.508;2023-03-14T22:43:59;100911.56;;;4.03;80.01
72465;BME280;60471;52.150;4.508;2023-03-14T22:46:25;100924.53;;;4.06;80.19
72465;BME280;60471;52.150;4.508;2023-03-14T22:48:51;100913.88;;;3.74;80.15
72465;BME280;60471;52.150;4.508;2023-03-14T22:51:17;100932.03;;;3.78;80.65
72465;BME280;60471;52.150;4.508;2023-03-14T22:53:44;100916.69;;;3.62;80.65
72465;BME280;60471;52.150;4.508;2023-03-14T22:56:11;100907.00;;;3.68;80.59
72465;BME280;60471;52.150;4.508;2023-03-14T22:58:37;100913.56;;;3.89;80.42
72465;BME280;60471;52.150;4.508;2023-03-14T23:01:03;100907.38;;;3.95;80.10
72465;BME280;60471;52.150;4.508;2023-03-14T23:03:30;100910.75;;;4.00;79.17
72465;BME280;60471;52.150;4.508;2023-03-14T23:05:57;100935.78;;;4.10;78.74
72465;BME280;60471;52.150;4.508;2023-03-14T23:08:23;100914.59;;;4.25;78.20
72465;BME280;60471;52.150;4.508;2023-03-14T23:10:49;100916.53;;;4.16;78.93
72465;BME280;60471;52.150;4.508;2023-03-14T23:13:18;100917.69;;;4.43;79.03
72465;BME280;60471;52.150;4.508;2023-03-14T23:15:44;100911.38;;;4.53;78.45
72465;BME280;60471;52.150;4.508;2023-03-14T23:18:10;100909.16;;;4.75;78.54
72465;BME280;60471;52.150;4.508;2023-03-14T23:20:38;100901.09;;;4.84;78.14
72465;BME280;60471;52.150;4.508;2023-03-14T23:23:04;100890.25;;;5.01;78.03
72465;BME280;60471;52.150;4.508;2023-03-14T23:25:34;100905.75;;;5.08;78.16
72465;BME280;60471;52.150;4.508;2023-03-14T23:28:00;100910.63;;;5.23;78.09
72465;BME280;60471;52.150;4.508;2023-03-14T23:30:26;100910.25;;;5.37;77.26
72465;BME280;60471;52.150;4.508;2023-03-14T23:32:52;100908.19;;;5.50;77.15
72465;BME280;60471;52.150;4.508;2023-03-14T23:35:18;100905.34;;;5.59;77.45
72465;BME280;60471;52.150;4.508;2023-03-14T23:37:45;100907.44;;;5.79;76.66
72465;BME280;60471;52.150;4.508;2023-03-14T23:40:11;100901.38;;;5.77;75.44
72465;BME280;60471;52.150;4.508;2023-03-14T23:42:37;100906.53;;;5.80;74.40
72465;BME280;60471;52.150;4.508;2023-03-14T23:45:03;100908.03;;;5.90;73.63
72465;BME280;60471;52.150;4.508;2023-03-14T23:47:30;100904.19;;;6.02;73.50
72465;BME280;60471;52.150;4.508;2023-03-14T23:49:56;100909.25;;;6.09;72.07
72465;BME280;60471;52.150;4.508;2023-03-14T23:52:22;100918.31;;;5.98;71.15
72465;BME280;60471;52.150;4.508;2023-03-14T23:54:48;100922.34;;;6.09;71.34
72465;BME280;60471;52.150;4.508;2023-03-14T23:57:14;100922.44;;;6.05;71.30
72465;BME280;60471;52.150;4.508;2023-03-14T23:59:40;100917.16;;;6.06;71.14
